TAF Text Data
IDs:
Format:
Raw Decoded Include METAR

Data at: 0159 UTC 01 Mar 2021

KDVN 010152Z AUTO 29014KT 10SM BKN015 00/M03 A3001 RMK AO2 SLP165 T00001028 $


KMLI 010152Z 31012KT 10SM BKN016 01/M03 A3000 RMK AO2 PK WND 30026/0108 SLP162 T00111028

KMLI 010059Z 0101/0124 30014G20KT P6SM BKN020
  FM010200 29012KT P6SM SKC
  FM010700 25007KT P6SM SKC
  FM011600 36006KT P6SM SCT020 BKN070